Terminal Aerodrome Forecast
Issued by NWS

Home | Current Version | Previous Version | Text Only | Print | Product List | Glossary On
Versions: 1 2 3 4 5 6 7 8 9 10 11 12 13 14 15 16 17 18 19 20 21
000
FTUS45 KSLC 211120
TAFOGD
TAF
KOGD 211120Z 2112/2212 32006KT P6SM SCT070 BKN120
     FM211500 34006KT P6SM VCSH BKN060 OVC100
     FM211900 32015G22KT P6SM VCSH SCT030 OVC050
     FM212200 32016KT 6SM -SHRA BKN030 OVC050
     FM220300 33010KT P6SM VCSH BKN040 OVC060=

USA.gov is the U.S. government's official web portal to all federal, state and local government web resources and services.